Terminal Aerodrome Forecast
Issued by NWS

Home | Current Version | Previous Version | Text Only | Print | Product List | Glossary On
Versions: 1 2 3 4 5 6 7 8 9 10 11 12 13 14 15 16 17 18 19 20
831
FTUS41 KGYX 120856 AAA
TAFPSM
TAF AMD
KPSM 120856Z 1209/1306 29012G22KT P6SM FEW040 SCT120
     FM121300 26007KT P6SM SCT050 SCT100
     FM122100 20006KT P6SM BKN050 BKN080=

USA.gov is the U.S. government's official web portal to all federal, state and local government web resources and services.